createdAt,value
2019-03-16T00:00:21.071Z,9.30
2019-03-16T00:02:50.431Z,9.30
2019-03-16T00:05:19.757Z,9.30
2019-03-16T00:07:49.094Z,9.30
2019-03-16T00:10:18.439Z,9.30
2019-03-16T00:12:47.772Z,9.30
2019-03-16T00:15:17.122Z,9.30
2019-03-16T00:17:46.454Z,9.30
2019-03-16T00:20:15.809Z,9.30
2019-03-16T00:22:45.142Z,9.30
2019-03-16T00:25:14.480Z,9.30
2019-03-16T00:27:43.816Z,9.30
2019-03-16T00:30:16.094Z,9.30
2019-03-16T00:32:45.428Z,9.30
2019-03-16T00:35:14.764Z,9.30
2019-03-16T00:37:44.100Z,9.30
2019-03-16T00:40:14.342Z,9.30
2019-03-16T00:42:43.751Z,9.30
2019-03-16T00:45:13.824Z,9.30
2019-03-16T00:47:43.156Z,9.20
2019-03-16T00:50:15.129Z,9.30
2019-03-16T00:52:44.484Z,9.30
2019-03-16T00:55:13.875Z,9.30
2019-03-16T00:57:43.215Z,9.30
2019-03-16T01:00:17.503Z,9.30
2019-03-16T01:02:47.078Z,9.30
2019-03-16T01:05:16.416Z,9.30
2019-03-16T01:07:45.755Z,9.30
2019-03-16T01:10:15.108Z,9.30
2019-03-16T01:12:44.451Z,9.30
2019-03-16T01:15:14.328Z,9.30
2019-03-16T01:17:43.669Z,9.20
2019-03-16T01:20:14.021Z,9.20
2019-03-16T01:22:43.522Z,9.20
2019-03-16T01:25:13.126Z,9.20
2019-03-16T01:27:42.487Z,9.30
2019-03-16T01:30:18.045Z,9.30
2019-03-16T01:32:47.372Z,9.20
2019-03-16T01:35:16.931Z,9.30
2019-03-16T01:37:46.261Z,9.30
2019-03-16T01:40:15.592Z,9.20
2019-03-16T01:42:44.929Z,9.30
2019-03-16T01:45:14.269Z,9.30
2019-03-16T01:47:43.624Z,9.30
2019-03-16T01:50:14.343Z,9.30
2019-03-16T01:52:43.678Z,9.30
2019-03-16T01:55:13.100Z,9.30
2019-03-16T01:57:42.449Z,9.30
2019-03-16T02:00:16.903Z,9.30
2019-03-16T02:02:54.803Z,9.30
2019-03-16T02:05:17.297Z,9.30
2019-03-16T02:07:46.646Z,9.40
2019-03-16T02:10:15.969Z,9.30
2019-03-16T02:12:45.357Z,9.30
2019-03-16T02:15:14.788Z,9.30
2019-03-16T02:17:44.126Z,9.40
2019-03-16T02:20:13.461Z,9.40
2019-03-16T02:22:42.805Z,9.40
2019-03-16T02:25:12.320Z,9.30
2019-03-16T02:27:41.648Z,9.40
2019-03-16T02:30:13.273Z,9.40
2019-03-16T02:32:42.600Z,9.40
2019-03-16T02:35:12.071Z,9.40
2019-03-16T02:37:41.402Z,9.40
2019-03-16T02:40:11.778Z,9.40
2019-03-16T02:42:41.113Z,9.40
2019-03-16T02:45:11.197Z,9.40
2019-03-16T02:47:40.680Z,9.50
2019-03-16T02:50:12.077Z,9.40
2019-03-16T02:52:41.402Z,9.40
2019-03-16T02:55:10.791Z,9.40
2019-03-16T02:57:40.161Z,9.40
2019-03-16T03:00:12.618Z,9.40
2019-03-16T03:02:41.936Z,9.40
2019-03-16T03:05:12.034Z,9.40
2019-03-16T03:07:41.370Z,9.40
2019-03-16T03:10:14.078Z,9.40
2019-03-16T03:12:43.471Z,9.40
2019-03-16T03:15:14.346Z,9.30
2019-03-16T03:17:43.690Z,9.30
2019-03-16T03:20:13.175Z,9.30
2019-03-16T03:22:42.496Z,9.30
2019-03-16T03:25:11.836Z,9.30
2019-03-16T03:27:41.167Z,9.30
2019-03-16T03:30:13.434Z,9.30
2019-03-16T03:32:42.895Z,9.20
2019-03-16T03:35:12.414Z,9.30
2019-03-16T03:37:41.823Z,9.20
2019-03-16T03:40:12.951Z,9.20
2019-03-16T03:42:42.276Z,9.20
2019-03-16T03:45:13.523Z,9.20
2019-03-16T03:47:42.859Z,9.20
2019-03-16T03:50:15.041Z,9.10
2019-03-16T03:52:44.382Z,9.10
2019-03-16T03:55:15.029Z,9.10
2019-03-16T03:57:44.366Z,9.00
2019-03-16T04:00:20.247Z,9.00
2019-03-16T04:02:49.582Z,8.90
2019-03-16T04:05:18.914Z,9.00
2019-03-16T04:07:48.294Z,8.90
2019-03-16T04:10:17.594Z,8.90
2019-03-16T04:12:47.180Z,8.90
2019-03-16T04:15:16.521Z,8.90
2019-03-16T04:17:45.853Z,8.80
2019-03-16T04:20:15.942Z,8.80
2019-03-16T04:22:45.288Z,8.80
2019-03-16T04:25:14.625Z,8.80
2019-03-16T04:27:43.978Z,8.80
2019-03-16T04:30:13.935Z,8.70
2019-03-16T04:32:43.270Z,8.70
2019-03-16T04:35:12.771Z,8.70
2019-03-16T04:37:42.125Z,8.70
2019-03-16T04:40:12.460Z,8.60
2019-03-16T04:42:41.808Z,8.60
2019-03-16T04:45:14.142Z,8.60
2019-03-16T04:47:43.482Z,8.60
2019-03-16T04:50:13.656Z,8.60
2019-03-16T04:52:42.993Z,8.60
2019-03-16T04:55:12.325Z,8.60
2019-03-16T04:57:41.666Z,8.60
2019-03-16T05:00:13.738Z,8.60
2019-03-16T05:02:43.060Z,8.50
2019-03-16T05:05:12.458Z,8.50
2019-03-16T05:07:41.798Z,8.50
2019-03-16T05:10:12.545Z,8.50
2019-03-16T05:12:41.901Z,8.50
2019-03-16T05:15:11.486Z,8.50
2019-03-16T05:17:40.821Z,8.40
2019-03-16T05:20:12.069Z,8.40
2019-03-16T05:22:41.405Z,8.40
2019-03-16T05:25:13.689Z,8.40
2019-03-16T05:27:43.025Z,8.40
2019-03-16T05:30:14.269Z,8.40
2019-03-16T05:32:43.609Z,8.40
2019-03-16T05:35:12.945Z,8.40
2019-03-16T05:37:42.285Z,8.30
2019-03-16T05:40:12.627Z,8.30
2019-03-16T05:42:41.961Z,8.20
2019-03-16T05:45:11.661Z,8.20
2019-03-16T05:47:40.993Z,8.20
2019-03-16T05:50:13.609Z,8.20
2019-03-16T05:52:43.002Z,8.10
2019-03-16T05:55:12.566Z,8.10
2019-03-16T05:57:41.906Z,8.00
2019-03-16T06:00:16.057Z,8.00
2019-03-16T06:02:45.398Z,8.00
2019-03-16T06:05:14.727Z,7.90
2019-03-16T06:07:44.067Z,7.90
2019-03-16T06:10:13.764Z,7.90
2019-03-16T06:12:46.331Z,7.90
2019-03-16T06:15:14.160Z,7.80
2019-03-16T06:17:43.496Z,7.80
2019-03-16T06:20:14.646Z,7.90
2019-03-16T06:22:43.980Z,7.90
2019-03-16T06:25:13.327Z,7.80
2019-03-16T06:27:42.651Z,7.80
2019-03-16T06:30:16.476Z,7.80
2019-03-16T06:32:45.808Z,7.80
2019-03-16T06:35:24.324Z,7.80
2019-03-16T06:37:46.207Z,7.70
2019-03-16T06:40:15.813Z,7.70
2019-03-16T06:42:45.140Z,7.80
2019-03-16T06:45:14.541Z,7.80
2019-03-16T06:47:43.887Z,7.80
2019-03-16T06:50:15.235Z,7.90
2019-03-16T06:52:44.571Z,8.00
2019-03-16T06:55:14.153Z,8.20
2019-03-16T06:57:43.667Z,8.30
2019-03-16T07:00:16.081Z,8.50
2019-03-16T07:02:45.654Z,8.60
2019-03-16T07:05:15.440Z,8.80
2019-03-16T07:07:44.777Z,8.90
2019-03-16T07:10:14.952Z,9.00
2019-03-16T07:12:44.293Z,9.10
2019-03-16T07:15:15.343Z,9.20
2019-03-16T07:17:44.683Z,9.20
2019-03-16T07:20:15.732Z,9.20
2019-03-16T07:22:45.087Z,9.30
2019-03-16T07:25:17.363Z,9.30
2019-03-16T07:27:46.694Z,9.40
2019-03-16T07:30:16.300Z,9.40
2019-03-16T07:32:45.735Z,9.40
2019-03-16T07:35:15.144Z,9.40
2019-03-16T07:37:44.502Z,9.40
2019-03-16T07:40:15.132Z,9.40
2019-03-16T07:42:44.472Z,9.50
2019-03-16T07:45:14.473Z,9.50
2019-03-16T07:47:43.791Z,9.50
2019-03-16T07:50:14.282Z,9.50
2019-03-16T07:52:43.636Z,9.60
2019-03-16T07:55:14.535Z,9.60
2019-03-16T07:57:43.866Z,9.70
2019-03-16T08:00:13.677Z,9.70
2019-03-16T08:02:43.047Z,9.70
2019-03-16T08:05:18.843Z,9.70
2019-03-16T08:07:44.870Z,9.70
2019-03-16T08:10:14.212Z,9.70
2019-03-16T08:12:43.551Z,9.70
2019-03-16T08:15:13.131Z,9.80
2019-03-16T08:17:42.461Z,9.80
2019-03-16T08:20:12.559Z,9.80
2019-03-16T08:22:41.893Z,9.80
2019-03-16T08:25:11.555Z,9.80
2019-03-16T08:27:53.514Z,9.80
2019-03-16T08:30:13.257Z,9.80
2019-03-16T08:32:42.571Z,9.80
2019-03-16T08:35:11.991Z,9.90
2019-03-16T08:37:41.324Z,9.80
2019-03-16T08:40:11.808Z,9.80
2019-03-16T08:42:41.131Z,9.80
2019-03-16T08:45:11.375Z,9.80
2019-03-16T08:47:40.706Z,9.80
2019-03-16T08:50:11.477Z,9.90
2019-03-16T08:52:40.846Z,9.90
2019-03-16T08:55:10.787Z,9.90
2019-03-16T08:57:40.117Z,9.90
2019-03-16T09:00:14.533Z,9.90
2019-03-16T09:02:43.845Z,9.90
2019-03-16T09:05:13.362Z,9.90
2019-03-16T09:07:43.770Z,9.90
2019-03-16T09:10:13.441Z,9.90
2019-03-16T09:12:54.496Z,9.90
2019-03-16T09:15:16.442Z,10.00
2019-03-16T09:17:45.775Z,9.90
2019-03-16T09:20:15.385Z,10.00
2019-03-16T09:22:44.729Z,10.00
2019-03-16T09:25:14.091Z,10.00
2019-03-16T09:27:43.437Z,10.00
2019-03-16T09:30:17.345Z,10.00
2019-03-16T09:32:46.690Z,10.00
2019-03-16T09:35:16.082Z,10.10
2019-03-16T09:37:45.463Z,10.10
2019-03-16T09:40:14.804Z,10.10
2019-03-16T09:42:46.571Z,10.10
2019-03-16T09:45:16.262Z,10.20
2019-03-16T09:47:45.611Z,10.20
2019-03-16T09:50:15.136Z,10.30
2019-03-16T09:52:44.483Z,10.20
2019-03-16T09:55:14.275Z,10.30
2019-03-16T09:57:43.656Z,10.20
2019-03-16T10:00:18.324Z,10.30
2019-03-16T10:02:47.668Z,10.30
2019-03-16T10:05:18.546Z,10.30
2019-03-16T10:07:47.894Z,10.30
2019-03-16T10:10:17.307Z,10.30
2019-03-16T10:12:46.647Z,10.40
2019-03-16T10:15:16.159Z,10.40
2019-03-16T10:17:45.561Z,10.40
2019-03-16T10:20:15.477Z,10.50
2019-03-16T10:22:44.810Z,10.50
2019-03-16T10:25:14.157Z,10.60
2019-03-16T10:27:43.487Z,10.60
2019-03-16T10:30:14.812Z,10.70
2019-03-16T10:32:44.159Z,10.60
2019-03-16T10:35:13.573Z,10.60
2019-03-16T10:37:42.927Z,10.70
2019-03-16T10:40:13.924Z,10.70
2019-03-16T10:42:43.244Z,10.70
2019-03-16T10:45:13.229Z,10.80
2019-03-16T10:47:42.566Z,10.80
2019-03-16T10:50:15.554Z,10.70
2019-03-16T10:52:44.893Z,10.80
2019-03-16T10:55:14.237Z,10.80
2019-03-16T10:57:43.581Z,10.80
2019-03-16T11:00:17.586Z,10.80
2019-03-16T11:02:46.981Z,10.80
2019-03-16T11:05:16.312Z,10.80
2019-03-16T11:07:46.590Z,10.80
2019-03-16T11:10:15.983Z,10.80
2019-03-16T11:12:45.336Z,10.80
2019-03-16T11:15:15.240Z,10.90
2019-03-16T11:17:44.571Z,10.90
2019-03-16T11:20:19.068Z,10.90
2019-03-16T11:22:48.406Z,10.90
2019-03-16T11:25:18.030Z,11.00
2019-03-16T11:27:47.386Z,11.10
2019-03-16T11:30:18.807Z,11.20
2019-03-16T11:32:48.142Z,11.20
2019-03-16T11:35:17.526Z,11.40
2019-03-16T11:37:46.880Z,11.40
2019-03-16T11:40:18.840Z,11.40
2019-03-16T11:42:48.179Z,11.40
2019-03-16T11:45:17.772Z,11.40
2019-03-16T11:47:47.135Z,11.50
2019-03-16T11:50:16.515Z,11.40
2019-03-16T11:52:45.858Z,11.40
2019-03-16T11:55:15.194Z,11.30
2019-03-16T11:57:44.539Z,11.30
2019-03-16T12:00:15.533Z,11.40
2019-03-16T12:02:44.959Z,11.50
2019-03-16T12:05:14.710Z,11.60
2019-03-16T12:07:45.327Z,11.60
2019-03-16T12:10:18.268Z,11.70
2019-03-16T12:12:47.607Z,11.70
2019-03-16T12:15:17.015Z,11.70
2019-03-16T12:17:46.360Z,11.60
2019-03-16T12:20:18.274Z,11.60
2019-03-16T12:22:48.023Z,11.50
2019-03-16T12:25:17.358Z,11.50
2019-03-16T12:27:49.278Z,11.50
2019-03-16T12:30:18.696Z,11.50
2019-03-16T12:32:48.040Z,11.40
2019-03-16T12:35:17.385Z,11.50
2019-03-16T12:37:46.730Z,11.60
2019-03-16T12:40:16.646Z,11.70
2019-03-16T12:42:45.984Z,11.70
2019-03-16T12:45:21.058Z,11.80
2019-03-16T12:47:50.549Z,11.80
2019-03-16T12:50:19.886Z,11.80
2019-03-16T12:52:49.225Z,11.80
2019-03-16T12:55:18.570Z,11.80
2019-03-16T12:57:48.080Z,11.80
2019-03-16T13:00:21.100Z,11.80
2019-03-16T13:02:50.454Z,11.80
2019-03-16T13:05:19.794Z,11.70
2019-03-16T13:07:49.677Z,11.60
2019-03-16T13:10:20.221Z,11.60
2019-03-16T13:12:49.638Z,11.60
2019-03-16T13:15:18.978Z,11.60
2019-03-16T13:17:48.449Z,11.60
2019-03-16T13:20:18.154Z,11.60
2019-03-16T13:22:47.492Z,11.70
2019-03-16T13:25:16.830Z,11.70
2019-03-16T13:27:46.174Z,11.70
2019-03-16T13:30:22.577Z,11.80
2019-03-16T13:32:51.930Z,11.80
2019-03-16T13:35:21.266Z,11.90
2019-03-16T13:37:50.734Z,11.90
2019-03-16T13:40:21.677Z,11.90
2019-03-16T13:42:51.022Z,11.90
2019-03-16T13:45:20.366Z,11.80
2019-03-16T13:47:51.901Z,11.80
2019-03-16T13:50:21.716Z,11.80
2019-03-16T13:52:51.330Z,11.80
2019-03-16T13:55:20.674Z,11.80
2019-03-16T13:57:50.015Z,12.00
2019-03-16T14:00:20.943Z,11.90
2019-03-16T14:02:50.290Z,11.90
2019-03-16T14:05:19.629Z,11.80
2019-03-16T14:07:53.702Z,11.80
2019-03-16T14:10:29.844Z,11.80
2019-03-16T14:12:59.189Z,11.80
2019-03-16T14:15:28.529Z,11.80
2019-03-16T14:17:58.501Z,11.70
2019-03-16T14:20:27.993Z,11.80
2019-03-16T14:22:57.518Z,11.80
2019-03-16T14:25:26.854Z,11.80
2019-03-16T14:27:56.200Z,11.80
2019-03-16T14:30:40.393Z,11.80
2019-03-16T14:32:56.637Z,11.80
2019-03-16T14:35:25.982Z,11.80
2019-03-16T14:37:55.323Z,11.70
2019-03-16T14:40:25.142Z,11.70
2019-03-16T14:42:54.463Z,11.70
2019-03-16T14:45:24.157Z,11.70
2019-03-16T14:47:53.496Z,11.70
2019-03-16T14:50:24.944Z,11.70
2019-03-16T14:52:54.284Z,11.70
2019-03-16T14:55:23.726Z,11.70
2019-03-16T14:57:53.310Z,11.70
2019-03-16T15:00:22.650Z,11.60
2019-03-16T15:02:51.984Z,11.70
2019-03-16T15:05:21.326Z,11.70
2019-03-16T15:07:51.166Z,11.60
2019-03-16T15:10:20.506Z,11.60
2019-03-16T15:12:49.845Z,11.60
2019-03-16T15:15:20.796Z,11.60
2019-03-16T15:17:50.125Z,11.60
2019-03-16T15:20:19.469Z,11.60
2019-03-16T15:22:48.806Z,11.60
2019-03-16T15:25:18.149Z,11.60
2019-03-16T15:27:47.488Z,11.60
2019-03-16T15:30:20.773Z,11.60
2019-03-16T15:32:50.180Z,11.70
2019-03-16T15:35:19.586Z,11.70
2019-03-16T15:37:48.863Z,11.70
2019-03-16T15:40:18.217Z,11.70
2019-03-16T15:42:47.552Z,11.70
2019-03-16T15:45:31.532Z,11.70
2019-03-16T15:48:00.865Z,11.70
2019-03-16T15:50:30.204Z,11.70
2019-03-16T15:52:59.547Z,11.60
2019-03-16T15:55:28.936Z,11.70
2019-03-16T15:58:07.951Z,11.60
2019-03-16T16:00:29.357Z,11.60
2019-03-16T16:02:58.714Z,11.60
2019-03-16T16:05:28.057Z,11.60
2019-03-16T16:07:57.657Z,11.60
2019-03-16T16:10:27.004Z,11.50
2019-03-16T16:12:56.352Z,11.50
2019-03-16T16:15:25.691Z,11.50
2019-03-16T16:17:55.030Z,11.50
2019-03-16T16:20:24.370Z,11.50
2019-03-16T16:22:53.712Z,11.50
2019-03-16T16:25:23.053Z,11.50
2019-03-16T16:27:52.393Z,11.50
2019-03-16T16:30:22.774Z,11.50
2019-03-16T16:32:52.108Z,11.50
2019-03-16T16:35:21.472Z,11.60
2019-03-16T16:37:50.805Z,11.60
2019-03-16T16:40:21.264Z,11.60
2019-03-16T16:42:50.667Z,11.60
2019-03-16T16:45:20.085Z,11.50
2019-03-16T16:47:49.426Z,11.60
2019-03-16T16:50:21.586Z,11.60
2019-03-16T16:52:50.969Z,11.50
2019-03-16T16:55:20.485Z,11.50
2019-03-16T16:57:49.828Z,11.50
2019-03-16T17:00:28.274Z,11.50
2019-03-16T17:02:57.616Z,11.50
2019-03-16T17:05:29.629Z,11.50
2019-03-16T17:07:58.970Z,11.50
2019-03-16T17:10:28.309Z,11.50
2019-03-16T17:12:57.661Z,11.50
2019-03-16T17:15:27.314Z,11.50
2019-03-16T17:17:56.654Z,11.50
2019-03-16T17:20:26.003Z,11.50
2019-03-16T17:22:55.372Z,11.50
2019-03-16T17:25:24.715Z,11.50
2019-03-16T17:27:54.618Z,11.50
2019-03-16T17:30:35.250Z,11.50
2019-03-16T17:33:04.597Z,11.50
2019-03-16T17:35:33.935Z,11.50
2019-03-16T17:38:03.280Z,11.50
2019-03-16T17:40:32.620Z,11.50
2019-03-16T17:43:01.960Z,11.40
2019-03-16T17:45:31.316Z,11.50
2019-03-16T17:48:00.641Z,11.50
2019-03-16T17:50:30.168Z,11.50
2019-03-16T17:52:59.506Z,11.50
2019-03-16T17:55:28.858Z,11.50
2019-03-16T17:57:58.194Z,11.50
2019-03-16T18:00:27.673Z,11.50
2019-03-16T18:02:57.008Z,11.50
2019-03-16T18:05:26.346Z,11.50
2019-03-16T18:07:56.497Z,11.50
2019-03-16T18:10:25.837Z,11.50
2019-03-16T18:12:55.172Z,11.50
2019-03-16T18:15:24.518Z,11.50
2019-03-16T18:17:54.023Z,11.50
2019-03-16T18:20:23.361Z,11.50
2019-03-16T18:22:52.854Z,11.50
2019-03-16T18:25:22.194Z,11.50
2019-03-16T18:27:51.529Z,11.50
2019-03-16T18:30:25.661Z,11.40
2019-03-16T18:32:55.001Z,11.50
2019-03-16T18:35:24.389Z,11.50
2019-03-16T18:37:53.724Z,11.50
2019-03-16T18:40:23.105Z,11.50
2019-03-16T18:42:52.448Z,11.50
2019-03-16T18:45:28.485Z,11.50
2019-03-16T18:47:57.870Z,11.50
2019-03-16T18:50:27.161Z,11.50
2019-03-16T18:52:56.787Z,11.50
2019-03-16T18:55:26.188Z,11.50
2019-03-16T18:57:55.534Z,11.50
2019-03-16T19:00:24.878Z,11.50
2019-03-16T19:02:54.235Z,11.50
2019-03-16T19:05:23.585Z,11.40
2019-03-16T19:07:53.497Z,11.50
2019-03-16T19:10:22.835Z,11.50
2019-03-16T19:12:52.177Z,11.50
2019-03-16T19:15:21.890Z,11.50
2019-03-16T19:17:58.734Z,11.50
2019-03-16T19:20:22.296Z,11.50
2019-03-16T19:22:51.665Z,11.50
2019-03-16T19:25:22.278Z,11.50
2019-03-16T19:27:51.940Z,11.50
2019-03-16T19:30:21.336Z,11.50
2019-03-16T19:32:50.611Z,11.50
2019-03-16T19:35:19.947Z,11.50
2019-03-16T19:37:49.285Z,11.50
2019-03-16T19:40:25.520Z,11.50
2019-03-16T19:42:54.858Z,11.50
2019-03-16T19:45:24.197Z,11.50
2019-03-16T19:47:53.532Z,11.50
2019-03-16T19:50:22.870Z,11.50
2019-03-16T19:52:52.209Z,11.50
2019-03-16T19:55:21.552Z,11.50
2019-03-16T19:57:50.885Z,11.50
2019-03-16T20:00:20.623Z,11.50
2019-03-16T20:02:51.382Z,11.50
2019-03-16T20:05:21.178Z,11.50
2019-03-16T20:07:50.519Z,11.50
2019-03-16T20:10:21.109Z,11.50
2019-03-16T20:12:53.204Z,11.60
2019-03-16T20:15:21.797Z,11.60
2019-03-16T20:17:51.127Z,11.60
2019-03-16T20:20:20.461Z,11.60
2019-03-16T20:22:49.802Z,11.60
2019-03-16T20:25:19.139Z,11.60
2019-03-16T20:27:48.798Z,11.50
2019-03-16T20:30:26.625Z,11.50
2019-03-16T20:33:02.437Z,11.50
2019-03-16T20:35:20.605Z,11.50
2019-03-16T20:37:49.955Z,11.50
2019-03-16T20:40:19.283Z,11.50
2019-03-16T20:42:48.623Z,11.50
2019-03-16T20:45:18.151Z,11.50
2019-03-16T20:47:47.576Z,11.50
2019-03-16T20:50:18.559Z,11.40
2019-03-16T20:52:48.018Z,11.40
2019-03-16T20:55:17.446Z,11.40
2019-03-16T20:57:46.791Z,11.40
2019-03-16T21:00:18.140Z,11.40
2019-03-16T21:02:47.772Z,11.40
2019-03-16T21:05:17.112Z,11.40
2019-03-16T21:07:46.453Z,11.40
2019-03-16T21:10:15.967Z,11.30
2019-03-16T21:12:45.535Z,11.30
2019-03-16T21:15:17.717Z,11.30
2019-03-16T21:17:47.157Z,11.30
2019-03-16T21:20:20.074Z,11.30
2019-03-16T21:22:49.402Z,11.30
2019-03-16T21:25:19.079Z,11.30
2019-03-16T21:27:48.362Z,11.30
2019-03-16T21:30:21.053Z,11.30
2019-03-16T21:32:50.380Z,11.30
2019-03-16T21:35:19.714Z,11.30
2019-03-16T21:37:49.052Z,11.30
2019-03-16T21:40:18.400Z,11.30
2019-03-16T21:42:47.736Z,11.30
2019-03-16T21:45:17.073Z,11.30
2019-03-16T21:47:46.411Z,11.30
2019-03-16T21:50:16.782Z,11.30
2019-03-16T21:52:46.103Z,11.30
2019-03-16T21:55:15.911Z,11.30
2019-03-16T21:57:45.239Z,11.30
2019-03-16T22:00:18.682Z,11.30
2019-03-16T22:02:48.035Z,11.20
2019-03-16T22:05:17.511Z,11.20
2019-03-16T22:07:46.844Z,11.20
2019-03-16T22:10:17.613Z,11.20
2019-03-16T22:12:46.937Z,11.10
2019-03-16T22:15:17.416Z,11.10
2019-03-16T22:17:46.911Z,11.10
2019-03-16T22:20:22.470Z,11.20
2019-03-16T22:22:51.800Z,11.20
2019-03-16T22:25:21.143Z,11.20
2019-03-16T22:27:51.928Z,11.20
2019-03-16T22:30:21.330Z,11.20
2019-03-16T22:32:50.659Z,11.20
2019-03-16T22:35:19.994Z,11.20
2019-03-16T22:37:49.334Z,11.20
2019-03-16T22:40:18.669Z,11.20
2019-03-16T22:42:48.006Z,11.10
2019-03-16T22:45:17.426Z,11.10
2019-03-16T22:47:46.767Z,11.10
2019-03-16T22:50:18.015Z,11.10
2019-03-16T22:52:47.379Z,11.10
2019-03-16T22:55:16.692Z,11.10
2019-03-16T22:57:46.026Z,11.10
2019-03-16T23:00:21.683Z,11.10
2019-03-16T23:02:51.024Z,11.10
2019-03-16T23:05:20.356Z,11.10
2019-03-16T23:07:49.691Z,11.10
2019-03-16T23:10:19.029Z,11.10
2019-03-16T23:12:48.373Z,11.20
2019-03-16T23:15:17.708Z,11.20
2019-03-16T23:17:47.046Z,11.20
2019-03-16T23:20:16.385Z,11.20
2019-03-16T23:22:45.733Z,11.20
2019-03-16T23:25:15.083Z,11.20
2019-03-16T23:27:44.542Z,11.20
2019-03-16T23:30:14.011Z,11.30
2019-03-16T23:32:43.349Z,11.30
2019-03-16T23:35:12.701Z,11.30
2019-03-16T23:37:42.031Z,11.30
2019-03-16T23:40:14.763Z,11.40
2019-03-16T23:42:44.124Z,11.40
2019-03-16T23:45:14.566Z,11.40
2019-03-16T23:47:44.036Z,11.40
2019-03-16T23:50:14.412Z,11.40
2019-03-16T23:52:43.745Z,11.50
2019-03-16T23:55:13.159Z,11.50
2019-03-16T23:57:42.492Z,11.50
